createdAt,value
2022-11-27T00:01:28.966Z,7.32
2022-11-27T00:03:57.049Z,7.45
2022-11-27T00:06:27.469Z,9.90
2022-11-27T00:08:57.820Z,7.93
2022-11-27T00:11:26.841Z,7.22
2022-11-27T00:13:54.202Z,8.07
2022-11-27T00:16:23.066Z,8.25
2022-11-27T00:18:51.101Z,8.63
2022-11-27T00:21:24.340Z,6.75
2022-11-27T00:23:53.353Z,8.15
2022-11-27T00:26:21.764Z,8.68
2022-11-27T00:28:49.175Z,10.07
2022-11-27T00:31:19.400Z,7.82
2022-11-27T00:34:19.656Z,7.72
2022-11-27T00:36:48.386Z,8.43
2022-11-27T00:39:15.855Z,8.27
2022-11-27T00:41:43.164Z,8.63
2022-11-27T00:44:12.272Z,10.52
2022-11-27T00:46:41.556Z,8.00
2022-11-27T00:49:12.287Z,8.82
2022-11-27T00:51:39.574Z,7.78
2022-11-27T00:54:07.225Z,7.80
2022-11-27T00:56:37.281Z,6.45
2022-11-27T00:59:05.807Z,8.70
2022-11-27T01:01:42.440Z,7.95
2022-11-27T01:04:13.794Z,6.85
2022-11-27T01:06:41.902Z,7.15
2022-11-27T01:09:11.791Z,8.15
2022-11-27T01:11:40.032Z,6.07
2022-11-27T01:14:14.513Z,7.28
2022-11-27T01:16:43.310Z,8.10
2022-11-27T01:19:12.533Z,7.05
2022-11-27T01:21:40.104Z,8.18
2022-11-27T01:24:08.002Z,9.05
2022-11-27T01:26:35.285Z,8.02
2022-11-27T01:29:02.614Z,6.20
2022-11-27T01:31:33.045Z,7.10
2022-11-27T01:34:04.850Z,5.97
2022-11-27T01:36:33.311Z,7.93
2022-11-27T01:39:01.693Z,7.38
2022-11-27T01:41:35.582Z,8.52
2022-11-27T01:44:24.928Z,6.85
2022-11-27T01:46:53.977Z,7.75
2022-11-27T01:49:24.098Z,9.02
2022-11-27T01:52:26.000Z,6.93
2022-11-27T01:54:59.625Z,7.50
2022-11-27T01:57:49.052Z,6.75
2022-11-27T02:00:17.726Z,7.90
2022-11-27T02:02:46.006Z,8.02
2022-11-27T02:05:19.835Z,5.32
2022-11-27T02:07:48.012Z,6.32
2022-11-27T02:10:16.402Z,6.78
2022-11-27T02:12:59.612Z,6.90
2022-11-27T02:15:38.438Z,7.18
2022-11-27T02:18:14.749Z,6.53
2022-11-27T02:20:48.782Z,6.07
2022-11-27T02:23:31.337Z,7.53
2022-11-27T02:26:27.618Z,6.37
2022-11-27T02:29:01.000Z,6.10
2022-11-27T02:31:46.371Z,5.45
2022-11-27T02:34:17.548Z,6.47
2022-11-27T02:37:03.285Z,7.53
2022-11-27T02:39:40.082Z,6.43
2022-11-27T02:42:17.952Z,5.00
2022-11-27T02:44:55.185Z,6.40
2022-11-27T02:47:23.284Z,6.18
2022-11-27T02:49:52.869Z,5.63
2022-11-27T02:52:20.533Z,4.85
2022-11-27T02:54:50.089Z,5.88
2022-11-27T02:57:20.008Z,7.50
2022-11-27T02:59:50.793Z,5.97
2022-11-27T03:02:23.128Z,6.50
2022-11-27T03:04:54.064Z,5.22
2022-11-27T03:07:39.118Z,6.18
2022-11-27T03:10:12.871Z,7.07
2022-11-27T03:12:40.270Z,4.78
2022-11-27T03:15:08.112Z,5.70
2022-11-27T03:17:51.749Z,5.35
2022-11-27T03:20:41.140Z,6.10
2022-11-27T03:23:08.462Z,5.80
2022-11-27T03:25:35.786Z,5.20
2022-11-27T03:28:07.041Z,5.30
2022-11-27T03:30:34.335Z,5.90
2022-11-27T03:33:02.602Z,4.75
2022-11-27T03:35:33.011Z,5.82
2022-11-27T03:38:00.332Z,5.05
2022-11-27T03:40:36.756Z,5.20
2022-11-27T03:43:25.675Z,5.57
2022-11-27T03:46:07.837Z,5.30
2022-11-27T03:48:56.569Z,5.47
2022-11-27T03:51:34.920Z,6.93
2022-11-27T03:54:02.360Z,5.28
2022-11-27T03:56:35.541Z,5.85
2022-11-27T04:01:31.343Z,5.82
2022-11-27T04:03:58.772Z,8.55
2022-11-27T04:06:26.054Z,4.93
2022-11-27T04:08:53.311Z,5.03
2022-11-27T04:11:20.705Z,5.75
2022-11-27T04:13:48.042Z,5.80
2022-11-27T04:16:15.392Z,5.82
2022-11-27T04:18:42.713Z,5.55
2022-11-27T04:21:10.202Z,5.63
2022-11-27T04:23:38.545Z,5.65
2022-11-27T04:26:06.045Z,6.57
2022-11-27T04:28:33.384Z,6.18
2022-11-27T04:31:00.773Z,7.05
2022-11-27T04:33:28.393Z,5.75
2022-11-27T04:35:55.703Z,4.95
2022-11-27T04:38:23.156Z,5.47
2022-11-27T04:40:53.160Z,4.93
2022-11-27T04:43:20.746Z,5.85
2022-11-27T04:45:48.066Z,6.22
2022-11-27T04:48:15.305Z,4.78
2022-11-27T04:50:42.516Z,5.35
2022-11-27T04:53:09.850Z,7.18
2022-11-27T04:55:37.130Z,6.82
2022-11-27T04:58:04.376Z,11.25
2022-11-27T05:00:31.787Z,5.35
2022-11-27T05:02:59.276Z,6.75
2022-11-27T05:05:26.719Z,6.10
2022-11-27T05:07:54.091Z,6.35
2022-11-27T05:10:21.453Z,6.50
2022-11-27T05:12:48.797Z,6.90
2022-11-27T05:15:16.198Z,7.88
2022-11-27T05:17:43.419Z,6.85
2022-11-27T05:20:11.152Z,5.28
2022-11-27T05:22:38.466Z,7.65
2022-11-27T05:25:06.149Z,5.68
2022-11-27T05:27:33.507Z,6.43
2022-11-27T05:30:00.804Z,7.75
2022-11-27T05:32:28.335Z,5.88
2022-11-27T05:34:55.681Z,6.25
2022-11-27T05:37:22.873Z,4.93
2022-11-27T05:39:50.127Z,5.40
2022-11-27T05:42:17.425Z,6.47
2022-11-27T05:44:44.716Z,5.90
2022-11-27T05:47:11.968Z,6.32
2022-11-27T05:49:39.359Z,6.57
2022-11-27T05:52:06.587Z,4.80
2022-11-27T05:54:33.872Z,5.80
2022-11-27T05:57:01.188Z,6.10
2022-11-27T05:59:28.483Z,7.97
2022-11-27T06:01:55.774Z,6.35
2022-11-27T06:04:23.072Z,13.07
2022-11-27T06:06:50.351Z,5.85
2022-11-27T06:09:17.547Z,6.53
2022-11-27T06:11:44.925Z,7.38
2022-11-27T06:14:12.216Z,5.10
2022-11-27T06:16:39.764Z,5.45
2022-11-27T06:19:07.713Z,5.85
2022-11-27T06:21:35.008Z,6.10
2022-11-27T06:24:03.229Z,6.10
2022-11-27T06:26:33.325Z,4.95
2022-11-27T06:29:01.746Z,5.40
2022-11-27T06:31:32.355Z,6.03
2022-11-27T06:34:00.184Z,6.82
2022-11-27T06:36:32.063Z,9.93
2022-11-27T06:38:59.496Z,6.75
2022-11-27T06:41:28.600Z,5.75
2022-11-27T06:43:58.554Z,5.35
2022-11-27T06:46:26.742Z,6.93
2022-11-27T06:48:55.189Z,5.88
2022-11-27T06:51:26.261Z,4.72
2022-11-27T06:53:54.304Z,5.82
2022-11-27T06:56:24.633Z,5.22
2022-11-27T06:58:54.330Z,5.18
2022-11-27T07:01:23.204Z,6.00
2022-11-27T07:03:51.012Z,7.22
2022-11-27T07:06:20.614Z,7.10
2022-11-27T07:08:48.243Z,6.28
2022-11-27T07:11:21.777Z,5.63
2022-11-27T07:13:50.790Z,5.75
2022-11-27T07:16:19.040Z,4.65
2022-11-27T07:18:49.113Z,5.38
2022-11-27T07:21:17.015Z,4.90
2022-11-27T07:23:45.000Z,4.95
2022-11-27T07:26:17.838Z,5.80
2022-11-27T07:28:45.572Z,4.43
2022-11-27T07:31:15.070Z,5.60
2022-11-27T07:33:42.631Z,5.38
2022-11-27T07:36:15.178Z,6.47
2022-11-27T07:38:43.145Z,5.75
2022-11-27T07:41:10.855Z,6.35
2022-11-27T07:43:39.425Z,6.68
2022-11-27T07:46:10.956Z,5.40
2022-11-27T07:48:38.336Z,5.68
2022-11-27T07:51:07.052Z,6.15
2022-11-27T07:53:40.041Z,6.32
2022-11-27T07:56:08.863Z,4.97
2022-11-27T07:58:36.790Z,5.28
2022-11-27T08:01:09.659Z,6.53
2022-11-27T08:03:37.110Z,4.65
2022-11-27T08:06:04.961Z,6.13
2022-11-27T08:08:33.052Z,6.50
2022-11-27T08:11:00.397Z,5.32
2022-11-27T08:13:27.714Z,5.63
2022-11-27T08:15:55.174Z,7.03
2022-11-27T08:18:22.592Z,18.60
2022-11-27T08:20:49.916Z,6.50
2022-11-27T08:23:17.302Z,7.25
2022-11-27T08:25:44.556Z,7.28
2022-11-27T08:28:11.821Z,10.60
2022-11-27T08:30:39.170Z,5.38
2022-11-27T08:33:06.528Z,8.73
2022-11-27T08:35:33.864Z,8.13
2022-11-27T08:38:01.316Z,10.07
2022-11-27T08:40:29.076Z,10.27
2022-11-27T08:42:58.915Z,15.20
2022-11-27T08:45:26.298Z,11.38
2022-11-27T08:47:53.684Z,8.02
2022-11-27T08:50:21.068Z,9.18
2022-11-27T08:52:48.301Z,7.47
2022-11-27T08:55:15.730Z,11.75
2022-11-27T08:57:43.013Z,12.45
2022-11-27T09:00:11.019Z,12.55
2022-11-27T09:02:38.298Z,11.15
2022-11-27T09:05:06.476Z,12.35
2022-11-27T09:07:34.522Z,11.70
2022-11-27T09:10:01.877Z,10.90
2022-11-27T09:12:29.525Z,9.70
2022-11-27T09:14:56.892Z,9.27
2022-11-27T09:17:24.279Z,11.45
2022-11-27T09:19:51.649Z,12.45
2022-11-27T09:22:18.999Z,12.73
2022-11-27T09:24:46.983Z,11.52
2022-11-27T09:27:14.263Z,8.05
2022-11-27T09:29:41.488Z,9.75
2022-11-27T09:32:08.774Z,12.25
2022-11-27T09:34:37.726Z,15.43
2022-11-27T09:37:05.234Z,16.27
2022-11-27T09:39:34.110Z,12.93
2022-11-27T09:42:04.393Z,16.95
2022-11-27T09:44:47.045Z,16.17
2022-11-27T09:47:41.028Z,13.90
2022-11-27T09:50:24.599Z,11.45
2022-11-27T09:52:59.778Z,12.30
2022-11-27T09:55:54.515Z,13.98
2022-11-27T09:58:43.901Z,11.32
2022-11-27T10:01:21.918Z,11.32
2022-11-27T10:03:49.534Z,12.60
2022-11-27T10:06:54.266Z,16.00
2022-11-27T10:09:41.750Z,8.10
2022-11-27T10:12:35.694Z,9.52
2022-11-27T10:15:19.887Z,8.95
2022-11-27T10:17:55.755Z,8.27
2022-11-27T10:20:32.565Z,8.43
2022-11-27T10:23:28.687Z,8.65
2022-11-27T10:26:04.212Z,8.63
2022-11-27T10:28:40.769Z,9.63
2022-11-27T10:31:18.635Z,9.98
2022-11-27T10:34:26.733Z,8.82
2022-11-27T10:36:56.249Z,8.38
2022-11-27T10:39:41.190Z,8.05
2022-11-27T10:42:22.776Z,9.75
2022-11-27T10:45:20.582Z,9.15
2022-11-27T10:47:50.725Z,8.75
2022-11-27T10:50:20.000Z,9.30
2022-11-27T10:52:54.796Z,9.27
2022-11-27T10:55:48.245Z,8.82
2022-11-27T10:58:27.733Z,5.50
2022-11-27T11:01:10.255Z,8.20
2022-11-27T11:03:37.811Z,11.93
2022-11-27T11:06:21.508Z,7.95
2022-11-27T11:09:06.170Z,7.80
2022-11-27T11:11:33.432Z,6.40
2022-11-27T11:14:00.836Z,11.43
2022-11-27T11:16:34.964Z,9.90
2022-11-27T11:19:03.807Z,9.93
2022-11-27T11:21:40.551Z,7.85
2022-11-27T11:24:18.687Z,7.57
2022-11-27T11:27:04.288Z,6.65
2022-11-27T11:29:36.331Z,8.07
2022-11-27T11:32:09.741Z,8.43
2022-11-27T11:34:59.230Z,10.77
2022-11-27T11:37:31.701Z,6.50
2022-11-27T11:40:00.420Z,6.57
2022-11-27T11:42:30.458Z,6.82
2022-11-27T11:45:17.559Z,7.85
2022-11-27T11:47:50.191Z,6.90
2022-11-27T11:50:47.931Z,5.93
2022-11-27T11:53:37.607Z,7.53
2022-11-27T11:56:26.699Z,8.68
2022-11-27T11:58:58.984Z,9.30
2022-11-27T12:01:44.741Z,9.27
2022-11-27T12:05:02.958Z,8.10
2022-11-27T12:07:45.218Z,7.60
2022-11-27T12:10:59.912Z,5.95
2022-11-27T12:13:57.021Z,6.95
2022-11-27T12:16:48.499Z,9.73
2022-11-27T12:19:30.931Z,13.48
2022-11-27T12:22:24.780Z,12.05
2022-11-27T12:25:10.007Z,12.27
2022-11-27T12:27:54.617Z,11.98
2022-11-27T12:30:26.515Z,8.38
2022-11-27T12:33:27.000Z,11.10
2022-11-27T12:36:23.484Z,10.40
2022-11-27T12:39:19.204Z,7.53
2022-11-27T12:41:46.489Z,6.70
2022-11-27T12:44:37.000Z,7.28
2022-11-27T12:47:12.438Z,8.73
2022-11-27T12:49:50.960Z,9.25
2022-11-27T12:52:41.013Z,9.80
2022-11-27T12:55:20.438Z,7.75
2022-11-27T12:57:51.860Z,6.65
2022-11-27T13:00:23.054Z,9.27
2022-11-27T13:02:53.425Z,9.32
2022-11-27T13:05:26.610Z,7.63
2022-11-27T13:10:38.300Z,7.72
2022-11-27T13:13:22.345Z,6.30
2022-11-27T13:15:58.708Z,11.35
2022-11-27T13:18:48.663Z,5.82
2022-11-27T13:21:22.900Z,8.52
2022-11-27T13:23:51.307Z,7.00
2022-11-27T13:26:26.630Z,7.18
2022-11-27T13:28:58.720Z,6.53
2022-11-27T13:31:30.075Z,8.55
2022-11-27T13:34:04.584Z,8.93
2022-11-27T13:36:42.065Z,6.32
2022-11-27T13:39:28.118Z,5.60
2022-11-27T13:42:20.142Z,6.22
2022-11-27T13:44:59.748Z,7.40
2022-11-27T13:47:37.916Z,6.13
2022-11-27T13:50:10.598Z,8.75
2022-11-27T13:52:49.729Z,4.75
2022-11-27T13:55:34.401Z,5.45
2022-11-27T13:58:03.908Z,5.38
2022-11-27T14:00:43.329Z,5.45
2022-11-27T14:03:28.832Z,5.97
2022-11-27T14:05:57.427Z,8.23
2022-11-27T14:08:24.755Z,4.82
2022-11-27T14:11:04.441Z,4.47
2022-11-27T14:13:39.480Z,7.43
2022-11-27T14:16:30.529Z,3.83
2022-11-27T14:19:03.326Z,5.68
2022-11-27T14:21:39.339Z,5.22
2022-11-27T14:24:53.586Z,5.75
2022-11-27T14:30:14.316Z,4.95
2022-11-27T14:32:42.141Z,4.95
2022-11-27T14:35:23.469Z,4.15
2022-11-27T14:37:51.222Z,5.13
2022-11-27T14:40:27.414Z,7.15
2022-11-27T14:43:06.954Z,8.57
2022-11-27T14:45:35.508Z,6.53
2022-11-27T14:48:03.486Z,5.47
2022-11-27T14:50:30.852Z,5.10
2022-11-27T14:52:58.898Z,4.63
2022-11-27T14:55:31.655Z,6.07
2022-11-27T14:58:02.077Z,10.35
2022-11-27T15:00:32.411Z,4.55
2022-11-27T15:03:10.215Z,7.22
2022-11-27T15:05:38.707Z,5.03
2022-11-27T15:08:10.281Z,5.07
2022-11-27T15:10:43.597Z,5.72
2022-11-27T15:13:40.720Z,4.60
2022-11-27T15:16:16.557Z,6.07
2022-11-27T15:18:49.969Z,6.55
2022-11-27T15:21:21.094Z,6.82
2022-11-27T15:23:49.985Z,5.45
2022-11-27T15:26:33.740Z,3.70
2022-11-27T15:29:02.061Z,5.82
2022-11-27T15:31:34.641Z,6.75
2022-11-27T15:34:13.830Z,5.00
2022-11-27T15:36:47.515Z,8.55
2022-11-27T15:39:44.900Z,3.97
2022-11-27T15:42:12.354Z,4.40
2022-11-27T15:44:40.836Z,7.97
2022-11-27T15:47:22.909Z,5.32
2022-11-27T15:49:51.225Z,4.80
2022-11-27T15:52:18.904Z,5.95
2022-11-27T15:54:46.150Z,7.40
2022-11-27T15:57:13.833Z,6.80
2022-11-27T15:59:41.101Z,8.80
2022-11-27T16:02:16.093Z,5.28
2022-11-27T16:04:45.189Z,4.47
2022-11-27T16:07:12.559Z,5.22
2022-11-27T16:09:40.220Z,4.57
2022-11-27T16:12:07.616Z,7.55
2022-11-27T16:14:34.867Z,4.35
2022-11-27T16:17:02.189Z,5.30
2022-11-27T16:19:30.235Z,4.13
2022-11-27T16:21:57.790Z,4.72
2022-11-27T16:24:25.033Z,5.90
2022-11-27T16:26:52.394Z,5.40
2022-11-27T16:29:19.756Z,5.38
2022-11-27T16:31:47.328Z,5.80
2022-11-27T16:34:16.488Z,4.97
2022-11-27T16:36:44.117Z,5.03
2022-11-27T16:39:12.507Z,5.20
2022-11-27T16:41:40.049Z,5.30
2022-11-27T16:44:14.200Z,4.45
2022-11-27T16:46:43.771Z,7.43
2022-11-27T16:49:11.730Z,5.93
2022-11-27T16:51:40.925Z,7.35
2022-11-27T16:54:12.895Z,5.15
2022-11-27T16:56:42.907Z,5.82
2022-11-27T16:59:11.952Z,7.53
2022-11-27T17:01:41.171Z,6.40
2022-11-27T17:04:10.256Z,6.53
2022-11-27T17:06:39.201Z,6.95
2022-11-27T17:09:08.313Z,7.05
2022-11-27T17:11:37.112Z,7.38
2022-11-27T17:14:07.302Z,7.18
2022-11-27T17:16:37.135Z,6.40
2022-11-27T17:19:04.996Z,6.70
2022-11-27T17:21:35.207Z,7.28
2022-11-27T17:24:14.706Z,8.18
2022-11-27T17:26:46.068Z,7.20
2022-11-27T17:29:16.064Z,6.38
2022-11-27T17:31:44.178Z,10.80
2022-11-27T17:34:13.700Z,7.85
2022-11-27T17:36:45.137Z,5.95
2022-11-27T17:39:14.882Z,7.07
2022-11-27T17:41:45.109Z,6.45
2022-11-27T17:44:13.070Z,6.03
2022-11-27T17:46:40.738Z,7.18
2022-11-27T17:49:08.588Z,6.43
2022-11-27T17:51:36.724Z,5.90
2022-11-27T17:54:05.508Z,5.72
2022-11-27T17:56:34.212Z,6.15
2022-11-27T17:59:02.155Z,6.13
2022-11-27T18:01:31.095Z,6.53
2022-11-27T18:04:01.369Z,6.53
2022-11-27T18:06:31.926Z,8.82
2022-11-27T18:08:59.922Z,6.95
2022-11-27T18:11:30.367Z,6.93
2022-11-27T18:16:38.258Z,6.60
2022-11-27T18:19:07.972Z,7.65
2022-11-27T18:21:37.023Z,8.13
2022-11-27T18:27:09.658Z,6.50
2022-11-27T18:29:42.295Z,7.45
2022-11-27T18:32:11.390Z,5.93
2022-11-27T18:34:39.448Z,6.03
2022-11-27T18:37:07.637Z,8.25
2022-11-27T18:39:36.829Z,7.53
2022-11-27T18:42:06.214Z,7.78
2022-11-27T18:44:41.187Z,9.05
2022-11-27T18:47:13.653Z,7.75
2022-11-27T18:49:42.988Z,8.23
2022-11-27T18:52:11.176Z,7.53
2022-11-27T18:54:38.692Z,8.65
2022-11-27T18:57:07.119Z,8.02
2022-11-27T18:59:35.025Z,7.30
2022-11-27T19:02:03.365Z,7.40
2022-11-27T19:04:30.779Z,6.65
2022-11-27T19:06:58.065Z,7.35
2022-11-27T19:09:25.477Z,8.55
2022-11-27T19:11:53.387Z,8.32
2022-11-27T19:14:20.675Z,7.70
2022-11-27T19:16:48.615Z,8.70
2022-11-27T19:22:10.052Z,9.07
2022-11-27T19:24:39.819Z,8.68
2022-11-27T19:27:07.522Z,7.95
2022-11-27T19:29:35.255Z,9.40
2022-11-27T19:32:02.960Z,7.70
2022-11-27T19:34:30.491Z,8.27
2022-11-27T19:37:00.641Z,9.35
2022-11-27T19:39:28.869Z,9.07
2022-11-27T19:41:57.941Z,8.38
2022-11-27T19:44:26.490Z,9.82
2022-11-27T19:46:53.888Z,9.73
2022-11-27T19:49:21.498Z,9.93
2022-11-27T19:51:49.748Z,10.15
2022-11-27T19:54:20.025Z,9.85
2022-11-27T19:56:47.813Z,10.07
2022-11-27T19:59:15.180Z,12.95
2022-11-27T20:01:42.670Z,9.68
2022-11-27T20:04:11.334Z,9.80
2022-11-27T20:06:39.259Z,8.75
2022-11-27T20:09:07.330Z,11.27
2022-11-27T20:11:37.731Z,9.15
2022-11-27T20:14:06.861Z,9.27
2022-11-27T20:16:35.903Z,9.77
2022-11-27T20:19:05.620Z,10.90
2022-11-27T20:21:36.831Z,8.93
2022-11-27T20:24:04.562Z,8.40
2022-11-27T20:26:37.093Z,10.18
2022-11-27T20:29:07.735Z,11.27
2022-11-27T20:31:37.697Z,9.57
2022-11-27T20:34:07.384Z,9.23
2022-11-27T20:36:37.961Z,8.43
2022-11-27T20:39:05.243Z,9.93
2022-11-27T20:41:32.613Z,10.07
2022-11-27T20:44:01.828Z,10.77
2022-11-27T20:46:31.932Z,8.95
2022-11-27T20:49:00.247Z,9.82
2022-11-27T20:51:33.604Z,10.52
2022-11-27T20:54:08.297Z,8.98
2022-11-27T20:56:36.244Z,9.57
2022-11-27T20:59:05.058Z,11.43
2022-11-27T21:01:34.282Z,9.90
2022-11-27T21:04:04.545Z,10.35
2022-11-27T21:06:32.565Z,11.63
2022-11-27T21:09:01.873Z,10.52
2022-11-27T21:11:32.653Z,10.65
2022-11-27T21:14:02.782Z,11.90
2022-11-27T21:16:33.048Z,10.38
2022-11-27T21:19:03.766Z,11.90
2022-11-27T21:21:31.430Z,9.77
2022-11-27T21:23:59.896Z,10.35
2022-11-27T21:26:27.742Z,10.07
2022-11-27T21:28:55.236Z,9.63
2022-11-27T21:31:26.062Z,10.80
2022-11-27T21:33:58.754Z,9.40
2022-11-27T21:36:29.193Z,13.00
2022-11-27T21:38:57.952Z,11.85
2022-11-27T21:41:26.546Z,13.15
2022-11-27T21:43:56.612Z,11.30
2022-11-27T21:46:26.767Z,11.60
2022-11-27T21:48:58.598Z,13.45
2022-11-27T21:51:27.039Z,10.85
2022-11-27T21:53:57.165Z,13.48
2022-11-27T21:56:27.315Z,11.23
2022-11-27T21:58:55.092Z,13.45
2022-11-27T22:01:24.883Z,12.77
2022-11-27T22:03:56.724Z,10.65
2022-11-27T22:06:27.071Z,15.32
2022-11-27T22:08:56.617Z,14.40
2022-11-27T22:11:26.904Z,12.32
2022-11-27T22:13:56.305Z,11.05
2022-11-27T22:16:26.316Z,11.77
2022-11-27T22:18:56.235Z,16.67
2022-11-27T22:21:24.083Z,15.75
2022-11-27T22:23:51.689Z,13.18
2022-11-27T22:26:21.555Z,11.43
2022-11-27T22:28:48.858Z,16.70
2022-11-27T22:31:29.685Z,13.88
2022-11-27T22:33:57.906Z,12.32
2022-11-27T22:36:31.213Z,12.57
2022-11-27T22:39:01.636Z,15.07
2022-11-27T22:41:32.107Z,13.73
2022-11-27T22:44:00.433Z,12.32
2022-11-27T22:46:32.623Z,13.70
2022-11-27T22:49:03.130Z,12.55
2022-11-27T22:51:33.602Z,13.98
2022-11-27T22:54:02.254Z,12.98
2022-11-27T22:56:29.937Z,13.27
2022-11-27T22:59:24.815Z,12.70
2022-11-27T23:01:48.543Z,14.07
2022-11-27T23:04:17.053Z,13.13
2022-11-27T23:06:48.199Z,14.55
2022-11-27T23:09:18.143Z,11.85
2022-11-27T23:11:45.654Z,13.32
2022-11-27T23:14:13.032Z,11.15
2022-11-27T23:16:40.519Z,14.07
2022-11-27T23:19:08.070Z,13.10
2022-11-27T23:21:37.544Z,12.88
2022-11-27T23:24:06.709Z,13.38
2022-11-27T23:26:34.414Z,13.35
2022-11-27T23:29:02.318Z,11.77
2022-11-27T23:31:36.124Z,11.82
2022-11-27T23:34:07.473Z,11.13
2022-11-27T23:36:35.728Z,11.15
2022-11-27T23:39:05.514Z,13.38
2022-11-27T23:41:33.012Z,10.73
2022-11-27T23:44:01.587Z,11.38
2022-11-27T23:46:30.320Z,12.95
2022-11-27T23:48:59.660Z,11.00
2022-11-27T23:51:30.137Z,12.15
2022-11-27T23:53:58.574Z,13.40
2022-11-27T23:56:29.564Z,12.90
2022-11-27T23:58:57.866Z,12.75
